Airfield :
LOGIN :

Register | Disclaimer

   EN    FR    IT 

 










Legend :    VFR   Marginal VFR   IFR   Intensive IFR   Very Intensive IFR
Visi :
Ceiling :
>= 8 km
>= 3000ft
5 to 8 km
1000 to 3000 ft
1500m to 5 km
500 to 1000 ft
800 to 1500m
200 to 500 ft
< 800m
< 200 ft
Symbols :   Thunderstorms  Fog  Heavy snow  Heavy precipitations  Wind > 20 kt
SIGMETs :     Misc.  Thunderstorms  Icing  Turbulence  Mountain Waves  Volcanic Ashes







- Airport Elevation : 187 ft


ETNW - Wunstorf AB

CURRENT METAR :
  • 191042Z 25018KT 9999 SCT021 09/03 Q1016 BLU+BLU TEMPO WHT

EXPIRED METARs :
  • 191020Z 25018KT 9999 SCT019 09/04 Q1016 BLU+BLU TEMPO GRN
  • 190920Z 25015KT 9999 SCT015 BKN140 08/04 Q1016 BLU BLU TEMPO GRN
  • 190820Z 25012KT 9999 SCT015 BKN140 07/04 Q1015 BLU BLU TEMPO GRN

TAF AMD TAF ETNW
Valid from the 19 at 10:00 until the 20 at 06:00 UTC


191042Z 1910/2006 25012KT 9999 NSW BKN030
TEMPO 1910/1918 25015G25KT 9999 NSW SCT010 BKN020 BY ETGL
No reported NOTAMs for that airfield.



MET'MAP, your aeronautical weather chart ! - Copyright ORBIFLY December 2007 - Disclaimer

ORBIFLY MET'MAP TEAM :

Programming & Development : Alexandra Zaïnal
Concept & Development : Baudouin d'Aumeries
Co-Development & Prog : Marc-Olivier Méhu
Technical & hardware support : Manuel Goepfert

Contact : metmap@orbifly.com




SOURCES & CREDITS :

   NOAA